sensor_id;sensor_type;location;lat;lon;timestamp;P1;durP1;ratioP1;P2;durP2;ratioP2
40541;SDS011;49288;52.194;5.676;2023-04-06T19:52:06;30.48;;;16.63;;
40541;SDS011;49288;52.194;5.676;2023-04-06T20:02:13;36.10;;;19.80;;
40541;SDS011;49288;52.194;5.676;2023-04-06T20:07:16;33.60;;;19.30;;
40541;SDS011;49288;52.194;5.676;2023-04-06T20:12:19;37.45;;;19.38;;
40541;SDS011;49288;52.194;5.676;2023-04-06T20:17:22;33.65;;;19.35;;
40541;SDS011;49288;52.194;5.676;2023-04-06T20:22:25;37.42;;;20.35;;
40541;SDS011;49288;52.194;5.676;2023-04-06T20:27:27;34.47;;;19.05;;
40541;SDS011;49288;52.194;5.676;2023-04-06T20:32:30;41.45;;;22.58;;
40541;SDS011;49288;52.194;5.676;2023-04-06T20:37:34;41.15;;;22.17;;
40541;SDS011;49288;52.194;5.676;2023-04-06T20:42:38;38.13;;;19.45;;
40541;SDS011;49288;52.194;5.676;2023-04-06T20:47:41;35.78;;;18.90;;
40541;SDS011;49288;52.194;5.676;2023-04-06T20:52:44;44.92;;;23.77;;
40541;SDS011;49288;52.194;5.676;2023-04-06T20:57:48;48.13;;;25.25;;
40541;SDS011;49288;52.194;5.676;2023-04-06T21:02:50;52.40;;;26.35;;
40541;SDS011;49288;52.194;5.676;2023-04-06T21:07:53;42.95;;;22.67;;
40541;SDS011;49288;52.194;5.676;2023-04-06T21:12:56;50.30;;;25.38;;
40541;SDS011;49288;52.194;5.676;2023-04-06T21:17:59;38.00;;;18.90;;
40541;SDS011;49288;52.194;5.676;2023-04-06T21:23:01;44.63;;;23.67;;
40541;SDS011;49288;52.194;5.676;2023-04-06T21:28:04;48.25;;;24.83;;
40541;SDS011;49288;52.194;5.676;2023-04-06T21:33:06;51.00;;;25.55;;
40541;SDS011;49288;52.194;5.676;2023-04-06T21:38:09;44.10;;;20.60;;
40541;SDS011;49288;52.194;5.676;2023-04-06T21:43:12;52.60;;;24.80;;
40541;SDS011;49288;52.194;5.676;2023-04-06T21:48:14;61.33;;;28.25;;
40541;SDS011;49288;52.194;5.676;2023-04-06T21:53:17;64.07;;;29.65;;
40541;SDS011;49288;52.194;5.676;2023-04-06T21:58:19;59.38;;;25.80;;
40541;SDS011;49288;52.194;5.676;2023-04-06T22:03:23;60.00;;;28.65;;
40541;SDS011;49288;52.194;5.676;2023-04-06T22:08:26;59.90;;;27.88;;
40541;SDS011;49288;52.194;5.676;2023-04-06T22:13:35;57.13;;;26.77;;
40541;SDS011;49288;52.194;5.676;2023-04-06T22:18:39;59.42;;;28.00;;
40541;SDS011;49288;52.194;5.676;2023-04-06T22:23:41;54.58;;;25.80;;
40541;SDS011;49288;52.194;5.676;2023-04-06T22:28:44;71.15;;;30.88;;
40541;SDS011;49288;52.194;5.676;2023-04-06T22:33:47;76.90;;;31.92;;
40541;SDS011;49288;52.194;5.676;2023-04-06T22:38:50;77.20;;;31.63;;
40541;SDS011;49288;52.194;5.676;2023-04-06T22:43:53;77.00;;;33.13;;
40541;SDS011;49288;52.194;5.676;2023-04-06T22:48:56;88.40;;;34.78;;
40541;SDS011;49288;52.194;5.676;2023-04-06T22:53:59;107.47;;;39.47;;
40541;SDS011;49288;52.194;5.676;2023-04-06T22:59:02;103.65;;;36.67;;
40541;SDS011;49288;52.194;5.676;2023-04-06T23:04:04;120.30;;;42.78;;
40541;SDS011;49288;52.194;5.676;2023-04-06T23:09:07;147.43;;;45.63;;
40541;SDS011;49288;52.194;5.676;2023-04-06T23:14:10;116.13;;;36.55;;
40541;SDS011;49288;52.194;5.676;2023-04-06T23:19:13;147.88;;;45.03;;
40541;SDS011;49288;52.194;5.676;2023-04-06T23:24:15;168.15;;;47.70;;
40541;SDS011;49288;52.194;5.676;2023-04-06T23:29:18;174.00;;;46.22;;
40541;SDS011;49288;52.194;5.676;2023-04-06T23:34:20;193.25;;;49.60;;
40541;SDS011;49288;52.194;5.676;2023-04-06T23:39:23;202.85;;;47.03;;
40541;SDS011;49288;52.194;5.676;2023-04-06T23:44:29;203.32;;;47.40;;
40541;SDS011;49288;52.194;5.676;2023-04-06T23:49:32;187.63;;;42.85;;
40541;SDS011;49288;52.194;5.676;2023-04-06T23:54:35;198.68;;;41.97;;
40541;SDS011;49288;52.194;5.676;2023-04-06T23:59:38;193.57;;;40.00;;
